createdAt,value
2023-02-09T00:00:37.291Z,65.90
2023-02-09T00:03:26.098Z,63.80
2023-02-09T00:06:17.156Z,64.97
2023-02-09T00:09:07.226Z,62.23
2023-02-09T00:12:13.539Z,63.23
2023-02-09T00:15:02.612Z,66.47
2023-02-09T00:17:51.349Z,63.67
2023-02-09T00:20:40.144Z,66.07
2023-02-09T00:23:30.083Z,73.73
2023-02-09T00:26:20.183Z,66.97
2023-02-09T00:29:09.778Z,66.00
2023-02-09T00:31:58.733Z,66.53
2023-02-09T00:34:47.658Z,68.67
2023-02-09T00:37:37.617Z,63.93
2023-02-09T00:40:26.445Z,66.87
2023-02-09T00:43:16.720Z,69.37
2023-02-09T00:46:05.815Z,64.23
2023-02-09T00:48:54.891Z,64.27
2023-02-09T00:51:44.314Z,70.30
2023-02-09T00:54:33.134Z,68.57
2023-02-09T00:57:21.880Z,68.27
2023-02-09T01:00:16.263Z,65.33
2023-02-09T01:03:05.551Z,70.93
2023-02-09T01:05:54.365Z,73.90
2023-02-09T01:08:43.691Z,66.93
2023-02-09T01:11:33.728Z,66.00
2023-02-09T01:14:22.380Z,63.90
2023-02-09T01:17:12.562Z,68.20
2023-02-09T01:20:01.736Z,69.03
2023-02-09T01:22:50.692Z,60.93
2023-02-09T01:25:39.402Z,66.83
2023-02-09T01:28:28.087Z,66.50
2023-02-09T01:31:23.033Z,62.73
2023-02-09T01:34:15.568Z,66.07
2023-02-09T01:37:04.272Z,63.17
2023-02-09T01:39:52.912Z,67.03
2023-02-09T01:42:41.802Z,63.13
2023-02-09T01:45:35.130Z,64.87
2023-02-09T01:48:28.321Z,66.97
2023-02-09T01:51:19.129Z,66.60
2023-02-09T01:54:10.942Z,65.53
2023-02-09T01:57:04.045Z,64.00
2023-02-09T01:59:57.478Z,61.70
2023-02-09T02:02:49.108Z,60.77
2023-02-09T02:05:41.337Z,57.53
2023-02-09T02:08:35.197Z,66.40
2023-02-09T02:11:27.724Z,60.43
2023-02-09T02:14:30.173Z,65.53
2023-02-09T02:17:33.400Z,61.27
2023-02-09T02:20:47.631Z,58.20
2023-02-09T02:23:48.593Z,60.17
2023-02-09T02:26:55.698Z,59.17
2023-02-09T02:30:13.658Z,62.03
2023-02-09T02:33:16.145Z,65.33
2023-02-09T02:36:11.618Z,62.40
2023-02-09T02:39:10.860Z,62.07
2023-02-09T02:42:20.968Z,63.03
2023-02-09T02:45:15.263Z,67.67
2023-02-09T02:48:18.544Z,56.53
2023-02-09T02:51:11.476Z,65.03
2023-02-09T02:54:04.099Z,64.70
2023-02-09T02:56:56.093Z,58.80
2023-02-09T02:59:49.887Z,64.57
2023-02-09T03:02:42.212Z,64.70
2023-02-09T03:05:33.063Z,64.23
2023-02-09T03:08:21.737Z,66.73
2023-02-09T03:11:12.602Z,61.80
2023-02-09T03:14:23.432Z,59.83
2023-02-09T03:17:25.433Z,60.53
2023-02-09T03:20:22.654Z,60.70
2023-02-09T03:23:21.320Z,71.80
2023-02-09T03:26:15.140Z,62.03
2023-02-09T03:29:04.582Z,58.50
2023-02-09T03:31:53.510Z,64.50
2023-02-09T03:34:42.724Z,60.00
2023-02-09T03:37:31.435Z,66.57
2023-02-09T03:40:21.630Z,56.13
2023-02-09T03:43:11.321Z,56.50
2023-02-09T03:46:00.123Z,67.63
2023-02-09T03:48:50.203Z,64.90
2023-02-09T03:51:39.150Z,64.27
2023-02-09T03:54:28.228Z,60.27
2023-02-09T03:57:18.510Z,64.43
2023-02-09T04:00:08.475Z,58.20
2023-02-09T04:03:06.374Z,61.60
2023-02-09T04:05:55.022Z,63.13
2023-02-09T04:08:44.627Z,58.67
2023-02-09T04:11:33.324Z,64.13
2023-02-09T04:14:23.450Z,60.10
2023-02-09T04:17:12.028Z,64.90
2023-02-09T04:20:01.164Z,57.90
2023-02-09T04:22:49.995Z,62.07
2023-02-09T04:25:39.103Z,62.10
2023-02-09T04:28:27.898Z,62.97
2023-02-09T04:31:18.514Z,61.70
2023-02-09T04:34:07.441Z,65.80
2023-02-09T04:36:56.132Z,60.33
2023-02-09T04:39:44.781Z,68.90
2023-02-09T04:42:33.507Z,60.67
2023-02-09T04:45:22.358Z,64.10
2023-02-09T04:48:14.635Z,69.37
2023-02-09T04:51:03.496Z,59.93
2023-02-09T04:53:52.513Z,62.87
2023-02-09T04:56:41.268Z,63.93
2023-02-09T04:59:35.016Z,66.43
2023-02-09T05:02:23.688Z,56.03
2023-02-09T05:05:13.740Z,62.87
2023-02-09T05:08:02.566Z,68.00
2023-02-09T05:10:52.210Z,64.67
2023-02-09T05:13:40.984Z,60.53
2023-02-09T05:16:30.096Z,66.20
2023-02-09T05:19:18.745Z,60.70
2023-02-09T05:22:08.718Z,69.97
2023-02-09T05:24:57.385Z,61.33
2023-02-09T05:27:46.144Z,65.17
2023-02-09T05:30:34.819Z,65.27
2023-02-09T05:33:24.330Z,72.03
2023-02-09T05:36:13.388Z,65.60
2023-02-09T05:39:03.455Z,71.00
2023-02-09T05:42:09.994Z,75.83
2023-02-09T05:44:58.833Z,65.07
2023-02-09T05:47:47.604Z,70.30
2023-02-09T05:50:36.898Z,62.90
2023-02-09T05:53:28.831Z,68.13
2023-02-09T05:56:18.907Z,63.10
2023-02-09T05:59:07.868Z,63.43
2023-02-09T06:01:56.654Z,65.53
2023-02-09T06:04:45.475Z,64.67
2023-02-09T06:07:34.333Z,65.33
2023-02-09T06:10:23.507Z,65.07
2023-02-09T06:13:13.903Z,70.43
2023-02-09T06:16:02.914Z,66.63
2023-02-09T06:18:51.508Z,66.37
2023-02-09T06:21:40.247Z,62.47
2023-02-09T06:24:29.124Z,67.93
2023-02-09T06:27:18.202Z,67.33
2023-02-09T06:30:10.260Z,69.03
2023-02-09T06:32:59.028Z,61.87
2023-02-09T06:35:48.011Z,72.70
2023-02-09T06:38:38.743Z,63.43
2023-02-09T06:41:27.819Z,63.27
2023-02-09T06:44:16.690Z,68.70
2023-02-09T06:47:06.912Z,64.67
2023-02-09T06:49:55.635Z,71.60
2023-02-09T06:52:44.743Z,67.23
2023-02-09T06:55:34.722Z,73.53
2023-02-09T06:58:24.341Z,72.73
2023-02-09T07:01:15.824Z,68.00
2023-02-09T07:04:06.013Z,68.83
2023-02-09T07:06:54.664Z,69.33
2023-02-09T07:09:43.288Z,69.37
2023-02-09T07:12:32.409Z,74.40
2023-02-09T07:15:21.073Z,60.60
2023-02-09T07:18:09.658Z,69.07
2023-02-09T07:21:01.843Z,58.50
2023-02-09T07:23:50.873Z,70.37
2023-02-09T07:26:39.573Z,65.87
2023-02-09T07:29:28.269Z,67.57
2023-02-09T07:32:18.054Z,64.30
2023-02-09T07:35:07.430Z,67.30
2023-02-09T07:37:57.506Z,66.77
2023-02-09T07:40:47.349Z,74.77
2023-02-09T07:43:36.307Z,70.70
2023-02-09T07:46:25.799Z,67.03
2023-02-09T07:49:14.508Z,67.97
2023-02-09T07:52:03.249Z,71.17
2023-02-09T07:54:53.367Z,69.20
2023-02-09T07:57:42.063Z,65.13
2023-02-09T08:00:31.100Z,64.83
2023-02-09T08:03:23.466Z,64.70
2023-02-09T08:06:19.547Z,66.23
2023-02-09T08:09:09.890Z,65.33
2023-02-09T08:12:05.055Z,67.93
2023-02-09T08:14:53.889Z,68.47
2023-02-09T08:17:42.701Z,69.23
2023-02-09T08:20:33.282Z,66.30
2023-02-09T08:23:26.506Z,74.87
2023-02-09T08:26:16.246Z,65.90
2023-02-09T08:29:07.388Z,77.13
2023-02-09T08:31:56.099Z,72.20
2023-02-09T08:34:44.839Z,65.37
2023-02-09T08:37:34.068Z,72.80
2023-02-09T08:40:22.973Z,73.00
2023-02-09T08:43:12.018Z,69.43
2023-02-09T08:46:05.920Z,68.80
2023-02-09T08:48:54.640Z,73.67
2023-02-09T08:51:43.314Z,72.90
2023-02-09T08:54:32.422Z,77.17
2023-02-09T08:57:21.038Z,70.50
2023-02-09T09:00:10.696Z,79.97
2023-02-09T09:03:04.769Z,81.70
2023-02-09T09:05:56.704Z,95.93
2023-02-09T09:08:45.350Z,76.97
2023-02-09T09:11:34.142Z,77.10
2023-02-09T09:14:22.977Z,74.70
2023-02-09T09:17:12.159Z,74.23
2023-02-09T09:20:02.452Z,71.20
2023-02-09T09:22:51.335Z,69.93
2023-02-09T09:25:40.535Z,67.20
2023-02-09T09:28:29.352Z,67.73
2023-02-09T09:31:19.716Z,70.37
2023-02-09T09:34:08.540Z,65.17
2023-02-09T09:36:58.872Z,64.23
2023-02-09T09:39:47.569Z,65.27
2023-02-09T09:42:39.411Z,61.43
2023-02-09T09:45:30.844Z,65.43
2023-02-09T09:48:24.775Z,68.13
2023-02-09T09:51:17.469Z,63.57
2023-02-09T09:54:12.591Z,69.17
2023-02-09T09:57:01.704Z,63.87
2023-02-09T09:59:50.701Z,63.17
2023-02-09T10:02:40.031Z,66.33
2023-02-09T10:05:30.226Z,60.23
2023-02-09T10:08:25.057Z,59.07
2023-02-09T10:11:17.169Z,63.03
2023-02-09T10:14:06.018Z,59.37
2023-02-09T10:16:54.842Z,71.13
2023-02-09T10:19:43.688Z,70.33
2023-02-09T10:22:32.549Z,65.40
2023-02-09T10:25:39.643Z,61.00
2023-02-09T10:28:32.364Z,54.57
2023-02-09T10:31:26.065Z,53.73
2023-02-09T10:34:17.054Z,49.47
2023-02-09T10:37:20.821Z,49.10
2023-02-09T10:40:16.448Z,50.63
2023-02-09T10:43:08.360Z,45.23
2023-02-09T10:46:01.146Z,43.17
2023-02-09T10:48:49.816Z,45.37
2023-02-09T10:51:38.500Z,48.20
2023-02-09T10:54:28.023Z,44.30
2023-02-09T10:57:28.966Z,44.87
2023-02-09T11:00:30.248Z,48.07
2023-02-09T11:03:22.213Z,46.67
2023-02-09T11:06:17.374Z,46.27
2023-02-09T11:09:12.210Z,45.30
2023-02-09T11:12:01.620Z,46.97
2023-02-09T11:14:50.584Z,46.87
2023-02-09T11:17:45.758Z,50.63
2023-02-09T11:20:40.698Z,49.57
2023-02-09T11:23:40.058Z,51.77
2023-02-09T11:26:39.508Z,54.07
2023-02-09T11:29:34.001Z,46.73
2023-02-09T11:32:28.152Z,46.03
2023-02-09T11:35:20.041Z,48.20
2023-02-09T11:38:16.663Z,46.97
2023-02-09T11:41:30.440Z,48.90
2023-02-09T11:44:27.748Z,45.00
2023-02-09T11:47:22.062Z,44.13
2023-02-09T11:50:17.135Z,41.73
2023-02-09T11:53:14.862Z,39.07
2023-02-09T11:56:06.010Z,50.60
2023-02-09T11:59:00.265Z,53.00
2023-02-09T12:01:53.083Z,40.13
2023-02-09T12:04:46.529Z,36.57
2023-02-09T12:07:42.002Z,38.63
2023-02-09T12:10:38.278Z,38.93
2023-02-09T12:13:39.504Z,36.83
2023-02-09T12:16:34.907Z,36.10
2023-02-09T12:19:34.782Z,34.20
2023-02-09T12:22:49.518Z,33.93
2023-02-09T12:25:51.409Z,32.87
2023-02-09T12:28:43.845Z,38.80
2023-02-09T12:31:53.560Z,31.80
2023-02-09T12:34:44.428Z,32.23
2023-02-09T12:37:33.202Z,36.13
2023-02-09T12:40:24.904Z,33.47
2023-02-09T12:43:28.271Z,37.37
2023-02-09T12:46:27.664Z,39.43
2023-02-09T12:49:32.509Z,38.53
2023-02-09T12:52:21.256Z,32.60
2023-02-09T12:55:20.944Z,27.67
2023-02-09T12:58:54.361Z,27.87
2023-02-09T13:02:13.364Z,33.50
2023-02-09T13:05:05.008Z,28.60
2023-02-09T13:07:59.178Z,32.17
2023-02-09T13:10:57.161Z,27.33
2023-02-09T13:13:53.861Z,31.13
2023-02-09T13:17:24.781Z,27.60
2023-02-09T13:20:37.501Z,31.43
2023-02-09T13:23:34.782Z,24.20
2023-02-09T13:29:35.053Z,29.93
2023-02-09T13:32:41.374Z,24.80
2023-02-09T13:35:34.718Z,28.37
2023-02-09T13:38:24.248Z,31.03
2023-02-09T13:41:26.956Z,23.87
2023-02-09T13:44:24.478Z,24.70
2023-02-09T13:47:16.678Z,28.43
2023-02-09T13:50:14.496Z,23.27
2023-02-09T13:53:10.542Z,26.23
2023-02-09T13:56:01.627Z,27.03
2023-02-09T13:58:50.678Z,25.03
2023-02-09T14:01:43.355Z,26.60
2023-02-09T14:04:36.149Z,25.53
2023-02-09T14:07:28.533Z,26.93
2023-02-09T14:10:19.800Z,25.33
2023-02-09T14:13:19.585Z,26.37
2023-02-09T14:16:09.270Z,28.73
2023-02-09T14:18:59.062Z,27.00
2023-02-09T14:21:49.166Z,24.10
2023-02-09T14:24:44.902Z,25.93
2023-02-09T14:27:36.310Z,27.77
2023-02-09T14:30:27.583Z,28.10
2023-02-09T14:33:24.963Z,25.43
2023-02-09T14:36:23.788Z,27.17
2023-02-09T14:39:17.346Z,27.00
2023-02-09T14:42:19.204Z,24.40
2023-02-09T14:45:30.996Z,24.43
2023-02-09T14:48:21.515Z,26.57
2023-02-09T14:51:14.675Z,24.77
2023-02-09T14:54:03.491Z,25.90
2023-02-09T14:56:54.700Z,23.97
2023-02-09T14:59:43.417Z,24.67
2023-02-09T15:02:32.708Z,24.80
2023-02-09T15:05:22.365Z,25.70
2023-02-09T15:08:15.580Z,25.10
2023-02-09T15:11:27.456Z,26.83
2023-02-09T15:14:18.136Z,30.00
2023-02-09T15:17:18.311Z,26.90
2023-02-09T15:20:07.962Z,29.67
2023-02-09T15:22:57.525Z,31.43
2023-02-09T15:25:47.312Z,26.50
2023-02-09T15:28:36.399Z,28.40
2023-02-09T15:31:26.518Z,33.30
2023-02-09T15:34:15.653Z,31.57
2023-02-09T15:37:04.357Z,30.63
2023-02-09T15:39:59.125Z,28.20
2023-02-09T15:43:05.042Z,29.27
2023-02-09T15:46:11.252Z,32.07
2023-02-09T15:49:02.235Z,29.40
2023-02-09T15:51:51.520Z,33.90
2023-02-09T15:54:41.380Z,36.13
2023-02-09T15:57:30.161Z,34.07
2023-02-09T16:00:20.563Z,31.17
2023-02-09T16:03:15.581Z,36.40
2023-02-09T16:06:13.006Z,34.90
2023-02-09T16:09:03.903Z,32.37
2023-02-09T16:11:52.847Z,29.60
2023-02-09T16:14:41.475Z,33.87
2023-02-09T16:17:30.141Z,38.60
2023-02-09T16:20:20.263Z,33.03
2023-02-09T16:23:20.599Z,35.20
2023-02-09T16:26:10.762Z,33.67
2023-02-09T16:28:59.522Z,36.57
2023-02-09T16:31:48.981Z,38.67
2023-02-09T16:34:37.969Z,37.20
2023-02-09T16:37:30.997Z,37.77
2023-02-09T16:40:26.253Z,35.40
2023-02-09T16:43:15.532Z,38.17
2023-02-09T16:46:05.888Z,37.60
2023-02-09T16:48:55.608Z,40.07
2023-02-09T16:51:44.369Z,40.57
2023-02-09T16:54:40.989Z,45.57
2023-02-09T16:57:31.149Z,42.50
2023-02-09T17:00:20.222Z,38.50
2023-02-09T17:03:15.664Z,42.10
2023-02-09T17:06:04.942Z,39.70
2023-02-09T17:08:56.739Z,41.53
2023-02-09T17:11:45.732Z,41.93
2023-02-09T17:14:36.079Z,43.37
2023-02-09T17:17:24.909Z,43.63
2023-02-09T17:20:20.301Z,43.57
2023-02-09T17:23:11.765Z,44.20
2023-02-09T17:26:01.000Z,43.57
2023-02-09T17:28:49.709Z,41.47
2023-02-09T17:31:52.735Z,45.47
2023-02-09T17:34:43.288Z,41.47
2023-02-09T17:37:32.153Z,38.73
2023-02-09T17:40:23.108Z,39.23
2023-02-09T17:43:11.978Z,40.93
2023-02-09T17:46:00.883Z,39.70
2023-02-09T17:48:51.019Z,38.10
2023-02-09T17:51:42.140Z,41.43
2023-02-09T17:54:32.591Z,44.60
2023-02-09T17:57:22.238Z,39.37
2023-02-09T18:00:12.485Z,42.57
2023-02-09T18:03:01.279Z,44.43
2023-02-09T18:05:54.510Z,44.10
2023-02-09T18:08:43.266Z,38.83
2023-02-09T18:12:02.238Z,37.53
2023-02-09T18:14:51.159Z,40.07
2023-02-09T18:17:42.458Z,40.60
2023-02-09T18:20:33.634Z,45.10
2023-02-09T18:23:23.867Z,39.43
2023-02-09T18:26:12.637Z,41.23
2023-02-09T18:29:01.336Z,40.40
2023-02-09T18:31:50.634Z,40.80
2023-02-09T18:34:39.416Z,44.17
2023-02-09T18:37:28.299Z,37.13
2023-02-09T18:40:18.874Z,42.03
2023-02-09T18:43:09.153Z,39.33
2023-02-09T18:45:58.644Z,37.70
2023-02-09T18:48:47.344Z,42.50
2023-02-09T18:51:36.005Z,43.47
2023-02-09T18:54:24.672Z,43.27
2023-02-09T18:57:14.850Z,42.53
2023-02-09T19:00:04.177Z,42.03
2023-02-09T19:02:54.448Z,44.17
2023-02-09T19:05:44.071Z,43.90
2023-02-09T19:08:36.942Z,46.33
2023-02-09T19:11:25.896Z,42.33
2023-02-09T19:14:33.143Z,44.10
2023-02-09T19:17:23.501Z,46.27
2023-02-09T19:20:14.598Z,43.47
2023-02-09T19:23:03.918Z,46.60
2023-02-09T19:26:03.159Z,44.27
2023-02-09T19:28:52.275Z,48.17
2023-02-09T19:31:42.991Z,45.53
2023-02-09T19:34:32.530Z,50.73
2023-02-09T19:37:22.520Z,45.37
2023-02-09T19:40:20.992Z,44.20
2023-02-09T19:43:09.683Z,45.47
2023-02-09T19:45:59.171Z,47.33
2023-02-09T19:48:49.695Z,43.97
2023-02-09T19:51:39.008Z,54.50
2023-02-09T19:54:27.909Z,46.00
2023-02-09T19:57:16.745Z,49.83
2023-02-09T20:00:06.338Z,48.27
2023-02-09T20:02:57.315Z,48.57
2023-02-09T20:05:48.173Z,45.77
2023-02-09T20:08:38.142Z,49.40
2023-02-09T20:11:26.921Z,46.27
2023-02-09T20:14:15.681Z,47.33
2023-02-09T20:17:04.406Z,52.00
2023-02-09T20:19:53.866Z,46.60
2023-02-09T20:22:43.979Z,52.20
2023-02-09T20:25:32.649Z,51.03
2023-02-09T20:28:21.863Z,47.20
2023-02-09T20:31:11.484Z,44.63
2023-02-09T20:34:00.493Z,51.00
2023-02-09T20:36:50.681Z,49.13
2023-02-09T20:39:40.814Z,48.53
2023-02-09T20:42:46.787Z,48.07
2023-02-09T20:45:52.836Z,48.03
2023-02-09T20:48:41.603Z,48.40
2023-02-09T20:51:30.867Z,53.97
2023-02-09T20:54:19.864Z,49.23
2023-02-09T20:57:10.415Z,48.70
2023-02-09T20:59:59.845Z,48.97
2023-02-09T21:02:49.158Z,49.53
2023-02-09T21:05:37.930Z,47.77
2023-02-09T21:08:26.582Z,47.70
2023-02-09T21:11:16.272Z,47.43
2023-02-09T21:14:06.598Z,47.47
2023-02-09T21:16:56.471Z,47.07
2023-02-09T21:19:45.340Z,45.63
2023-02-09T21:22:34.098Z,44.50
2023-02-09T21:25:22.736Z,43.80
2023-02-09T21:28:11.852Z,52.07
2023-02-09T21:31:02.292Z,42.83
2023-02-09T21:33:50.980Z,42.57
2023-02-09T21:36:40.255Z,42.63
2023-02-09T21:39:29.176Z,41.90
2023-02-09T21:42:31.411Z,40.97
2023-02-09T21:45:20.392Z,42.67
2023-02-09T21:48:14.377Z,42.70
2023-02-09T21:51:04.046Z,44.93
2023-02-09T21:53:56.864Z,36.87
2023-02-09T21:56:45.819Z,44.03
2023-02-09T21:59:35.393Z,43.80
2023-02-09T22:02:24.169Z,44.07
2023-02-09T22:05:14.430Z,41.27
2023-02-09T22:08:03.234Z,39.27
2023-02-09T22:10:52.102Z,37.77
2023-02-09T22:13:40.967Z,39.40
2023-02-09T22:16:30.252Z,40.40
2023-02-09T22:19:18.841Z,43.57
2023-02-09T22:22:08.970Z,43.47
2023-02-09T22:24:59.152Z,39.60
2023-02-09T22:27:47.803Z,44.73
2023-02-09T22:30:36.493Z,39.83
2023-02-09T22:33:25.591Z,39.17
2023-02-09T22:36:15.860Z,39.40
2023-02-09T22:39:07.025Z,44.13
2023-02-09T22:41:58.357Z,43.40
2023-02-09T22:44:47.042Z,38.90
2023-02-09T22:47:36.062Z,37.70
2023-02-09T22:50:24.766Z,41.57
2023-02-09T22:53:13.421Z,42.50
2023-02-09T22:56:04.953Z,41.07
2023-02-09T22:58:54.694Z,43.23
2023-02-09T23:01:43.787Z,37.73
2023-02-09T23:04:33.463Z,40.07
2023-02-09T23:07:22.206Z,38.63
2023-02-09T23:10:11.115Z,37.40
2023-02-09T23:13:01.182Z,37.50
2023-02-09T23:15:50.149Z,40.80
2023-02-09T23:18:39.869Z,41.17
2023-02-09T23:21:32.224Z,40.83
2023-02-09T23:24:24.564Z,39.60
2023-02-09T23:27:13.159Z,39.20
2023-02-09T23:30:03.506Z,38.93
2023-02-09T23:32:52.474Z,40.17
2023-02-09T23:35:41.222Z,37.23
2023-02-09T23:38:29.872Z,35.27
2023-02-09T23:41:19.683Z,37.23
2023-02-09T23:44:08.466Z,34.27
2023-02-09T23:46:58.884Z,34.50
2023-02-09T23:49:47.571Z,38.77
2023-02-09T23:52:36.190Z,31.77
2023-02-09T23:55:24.915Z,34.47
2023-02-09T23:58:13.498Z,35.97
